Time;durP1;ratioP1;P1;durP2;ratioP2;P2;SDS_P1;SDS_P2;PMS_P1;PMS_P2;Temp;Humidity;BMP_temperature;BMP_pressure;BME280_temperature;BME280_humidity;BME280_pressure;Samples;Min_cycle;Max_cycle;Signal;HPM_P1;HPM_P2
2022/11/15 00:00:16;;;;;;;20.45;11.07;;;8.60;99.90;;;;;;7408560;19;19962;-66
2022/11/15 00:02:44;;;;;;;18.95;10.45;;;8.60;99.90;;;;;;7404303;19;19918;-66
2022/11/15 00:05:13;;;;;;;22.50;10.75;;;8.60;99.90;;;;;;7397483;19;19918;-66
2022/11/15 00:07:42;;;;;;;20.00;10.20;;;8.60;99.90;;;;;;7407906;19;19919;-66
2022/11/15 00:10:14;;;;;;;20.23;10.85;;;8.60;99.90;;;;;;7403983;19;19921;-66
2022/11/15 00:12:43;;;;;;;20.23;10.95;;;8.60;99.90;;;;;;7405322;19;19918;-66
2022/11/15 00:15:12;;;;;;;21.90;12.00;;;8.50;99.90;;;;;;7402736;19;19923;-65
2022/11/15 00:17:41;;;;;;;26.38;11.90;;;8.50;99.90;;;;;;7403269;19;19914;-67
2022/11/15 00:20:11;;;;;;;20.05;10.52;;;8.50;99.90;;;;;;7400398;19;19966;-66
2022/11/15 00:22:41;;;;;;;20.70;11.25;;;8.40;99.90;;;;;;7401516;19;19921;-65
2022/11/15 00:25:13;;;;;;;21.85;10.88;;;8.40;99.90;;;;;;7406887;19;20578;-66
2022/11/15 00:27:42;;;;;;;20.23;10.93;;;8.40;99.90;;;;;;7404567;19;19923;-67
2022/11/15 00:30:12;;;;;;;19.60;10.80;;;8.30;99.90;;;;;;7402353;19;19941;-65
2022/11/15 00:32:41;;;;;;;18.60;9.88;;;8.30;99.90;;;;;;7404733;19;20002;-66
2022/11/15 00:35:10;;;;;;;20.70;11.57;;;8.30;99.90;;;;;;7406980;19;19946;-66
2022/11/15 00:37:39;;;;;;;21.98;10.57;;;8.20;99.90;;;;;;7407861;19;19929;-67
2022/11/15 00:40:14;;;;;;;18.42;9.88;;;8.10;99.90;;;;;;7403751;19;19943;-66
2022/11/15 00:42:43;;;;;;;19.73;10.45;;;8.10;99.90;;;;;;7411590;19;19922;-66
2022/11/15 00:45:12;;;;;;;18.80;10.55;;;8.00;99.90;;;;;;7412130;19;19930;-66
2022/11/15 00:47:41;;;;;;;18.33;10.13;;;8.00;99.90;;;;;;7411546;19;19914;-66
2022/11/15 00:50:11;;;;;;;17.90;10.13;;;7.90;99.90;;;;;;7410574;19;19926;-67
2022/11/15 00:52:39;;;;;;;21.48;10.55;;;7.90;99.90;;;;;;7411742;19;19918;-67
2022/11/15 00:55:09;;;;;;;21.98;9.90;;;7.80;99.90;;;;;;7400626;19;19914;-66
2022/11/15 00:57:40;;;;;;;18.23;10.27;;;7.80;99.90;;;;;;7410774;19;19921;-66
2022/11/15 01:00:11;;;;;;;18.00;10.02;;;7.70;99.90;;;;;;7410840;19;19923;-66
2022/11/15 01:02:40;;;;;;;18.73;10.18;;;7.60;99.90;;;;;;7411970;19;19929;-66
2022/11/15 01:05:10;;;;;;;19.30;10.70;;;7.60;99.90;;;;;;7408700;19;20292;-66
2022/11/15 01:07:39;;;;;;;20.17;9.82;;;7.50;99.90;;;;;;7412663;19;19921;-66
2022/11/15 01:10:09;;;;;;;21.63;10.13;;;7.50;99.90;;;;;;7407954;19;19914;-64
2022/11/15 01:12:40;;;;;;;21.35;9.80;;;7.40;99.90;;;;;;7405952;19;19937;-66
2022/11/15 01:15:10;;;;;;;18.73;10.10;;;7.30;99.90;;;;;;7402894;19;19915;-66
2022/11/15 01:17:39;;;;;;;18.45;10.52;;;7.30;99.90;;;;;;7411541;19;19950;-66
2022/11/15 01:20:09;;;;;;;18.02;10.30;;;7.20;99.90;;;;;;7409776;19;19926;-66
2022/11/15 01:22:38;;;;;;;18.48;9.98;;;7.20;99.90;;;;;;7409063;19;19918;-66
2022/11/15 01:25:08;;;;;;;20.95;10.05;;;7.20;99.90;;;;;;7411453;19;19914;-65
2022/11/15 01:27:40;;;;;;;19.60;9.70;;;7.10;99.90;;;;;;7408291;19;19907;-66
2022/11/15 01:30:10;;;;;;;19.50;10.07;;;7.10;99.90;;;;;;7405185;19;19911;-66
2022/11/15 01:32:39;;;;;;;19.75;9.80;;;7.10;99.90;;;;;;7410188;19;19911;-66
2022/11/15 01:35:09;;;;;;;19.42;10.35;;;7.10;99.90;;;;;;7405944;19;20336;-66
2022/11/15 01:37:38;;;;;;;17.17;9.13;;;7.10;99.90;;;;;;7405728;19;19915;-65
2022/11/15 01:40:08;;;;;;;18.25;10.25;;;7.20;99.90;;;;;;7411345;19;20495;-65
2022/11/15 01:42:36;;;;;;;;;;;7.20;99.90;;;;;;7411150;19;19914;-66
2022/11/15 01:45:15;;;;;;;18.90;10.05;;;7.30;99.90;;;;;;7406886;19;19965;-65
2022/11/15 01:47:49;;;;;;;19.23;10.02;;;7.30;99.90;;;;;;7407933;19;19935;-65
2022/11/15 01:50:21;;;;;;;20.30;11.30;;;7.40;99.90;;;;;;7407971;19;19935;-66
2022/11/15 01:52:50;;;;;;;20.67;11.20;;;7.40;99.90;;;;;;7401490;19;22367;-66
2022/11/15 01:55:23;;;;;;;19.95;10.13;;;7.50;99.90;;;;;;7408966;19;19922;-66
2022/11/15 01:57:55;;;;;;;21.92;11.52;;;7.60;99.90;;;;;;7409502;19;19924;-66
2022/11/15 02:00:27;;;;;;;20.75;11.18;;;7.60;99.90;;;;;;7407426;19;19915;-66
2022/11/15 02:02:56;;;;;;;19.90;10.70;;;7.70;99.90;;;;;;7410437;19;19951;-66
2022/11/15 02:05:25;;;;;;;19.90;10.00;;;7.70;99.90;;;;;;7404262;19;20320;-66
2022/11/15 02:07:54;;;;;;;22.77;10.73;;;7.80;99.90;;;;;;7410327;19;20383;-66
2022/11/15 02:10:25;;;;;;;22.27;11.50;;;7.90;99.90;;;;;;7407385;19;19923;-66
2022/11/15 02:12:54;;;;;;;21.20;10.38;;;7.90;99.90;;;;;;7406012;19;19925;-66
2022/11/15 02:15:25;;;;;;;22.40;11.52;;;7.90;99.90;;;;;;7407483;19;19937;-66
2022/11/15 02:18:13;;;;;;;21.02;10.77;;;8.00;99.90;;;;;;7406996;19;19925;-66
2022/11/15 02:20:55;;;;;;;19.88;10.25;;;8.00;99.90;;;;;;7402628;19;23217;-65
2022/11/15 02:23:59;;;;;;;22.25;10.93;;;8.10;99.90;;;;;;7406381;19;20352;-66
2022/11/15 02:26:53;;;;;;;20.73;10.95;;;8.10;99.90;;;;;;7405466;19;19923;-66
2022/11/15 02:29:35;;;;;;;20.73;10.70;;;8.10;99.90;;;;;;7409770;19;19925;-66
2022/11/15 02:32:12;;;;;;;21.70;11.57;;;8.10;99.90;;;;;;7407977;19;19921;-66
2022/11/15 02:34:53;;;;;;;20.23;10.63;;;8.10;99.90;;;;;;7404788;19;19946;-66
2022/11/15 02:37:29;;;;;;;21.92;11.52;;;8.20;99.90;;;;;;7399432;19;19926;-66
2022/11/15 02:40:05;;;;;;;21.30;11.25;;;8.10;99.90;;;;;;7403725;19;19938;-65
2022/11/15 02:45:32;;;;;;;22.45;12.20;;;8.10;99.90;;;;;;7404163;19;20336;-66
2022/11/15 02:48:06;;;;;;;20.95;10.82;;;8.20;99.90;;;;;;7407570;19;19922;-66
2022/11/15 02:50:36;;;;;;;20.27;10.05;;;8.20;99.90;;;;;;7406782;19;19918;-66
2022/11/15 02:53:04;;;;;;;20.92;11.63;;;8.20;99.90;;;;;;7405345;19;20015;-66
2022/11/15 02:55:36;;;;;;;21.35;11.07;;;8.20;99.90;;;;;;7396173;19;19925;-66
2022/11/15 02:58:30;;;;;;;22.25;11.90;;;8.20;99.90;;;;;;7406631;19;19918;-66
2022/11/15 03:01:02;;;;;;;;;;;8.20;99.90;;;;;;7410497;19;19937;-66
2022/11/15 03:03:51;;;;;;;19.45;9.85;;;8.20;99.90;;;;;;7407574;19;19929;-66
2022/11/15 03:06:29;;;;;;;20.38;10.48;;;8.20;99.90;;;;;;7406039;19;19933;-66
2022/11/15 03:09:07;;;;;;;21.33;10.70;;;8.20;99.90;;;;;;7406096;19;20367;-66
2022/11/15 03:11:40;;;;;;;21.40;11.45;;;8.30;99.90;;;;;;7405470;19;19911;-66
2022/11/15 03:14:17;;;;;;;24.60;11.60;;;8.30;99.90;;;;;;7404843;19;19918;-66
2022/11/15 03:16:52;;;;;;;20.25;10.30;;;8.30;99.90;;;;;;7407463;19;19929;-66
2022/11/15 03:19:28;;;;;;;22.10;10.27;;;8.30;99.90;;;;;;7402326;19;19919;-66
2022/11/15 03:22:00;;;;;;;24.05;11.77;;;8.30;99.90;;;;;;7407352;19;19933;-66
2022/11/15 03:24:32;;;;;;;18.88;10.15;;;8.40;99.90;;;;;;7408413;19;19918;-66
2022/11/15 03:27:03;;;;;;;21.13;11.10;;;8.40;99.90;;;;;;7408091;19;19917;-66
2022/11/15 03:29:36;;;;;;;20.80;9.70;;;8.40;99.90;;;;;;7407982;19;20300;-66
2022/11/15 03:32:10;;;;;;;17.45;9.32;;;8.40;99.90;;;;;;7404714;19;19926;-66
2022/11/15 03:34:46;;;;;;;20.23;9.82;;;8.40;99.90;;;;;;7408403;19;19946;-66
2022/11/15 03:37:18;;;;;;;22.42;11.07;;;8.40;99.90;;;;;;7404577;19;19938;-65
2022/11/15 03:39:47;;;;;;;21.10;10.40;;;8.40;99.90;;;;;;7405274;19;19974;-66
2022/11/15 03:42:24;;;;;;;21.88;10.60;;;8.40;99.90;;;;;;7404882;19;20332;-66
2022/11/15 03:45:00;;;;;;;21.15;10.23;;;8.50;99.90;;;;;;7404373;19;20316;-66
2022/11/15 03:47:35;;;;;;;21.02;10.45;;;8.40;99.90;;;;;;7400978;19;20336;-66
2022/11/15 03:50:13;;;;;;;21.80;10.63;;;8.40;99.90;;;;;;7408228;19;19919;-66
2022/11/15 03:52:43;;;;;;;19.60;10.40;;;8.40;99.90;;;;;;7405666;19;19922;-66
2022/11/15 03:55:17;;;;;;;25.17;11.82;;;8.40;99.90;;;;;;7404541;19;20336;-66
2022/11/15 03:57:47;;;;;;;24.48;10.25;;;8.40;99.90;;;;;;7405972;19;19914;-66
2022/11/15 04:00:16;;;;;;;22.60;10.38;;;8.40;99.90;;;;;;7404193;19;19911;-66
2022/11/15 04:02:45;;;;;;;24.67;11.75;;;8.40;99.90;;;;;;7405150;19;20347;-66
2022/11/15 04:05:16;;;;;;;23.65;10.93;;;8.40;99.90;;;;;;7407299;19;19914;-66
2022/11/15 04:07:45;;;;;;;23.13;10.55;;;8.50;99.90;;;;;;7405083;19;19974;-68
2022/11/15 04:10:14;;;;;;;22.75;11.90;;;8.40;99.90;;;;;;7403569;19;19929;-66
2022/11/15 04:12:47;;;;;;;24.75;11.82;;;8.50;99.90;;;;;;7402491;19;20254;-66
2022/11/15 04:15:19;;;;;;;23.58;11.38;;;8.50;99.90;;;;;;7403208;19;19922;-66
2022/11/15 04:17:50;;;;;;;26.88;11.05;;;8.50;99.90;;;;;;7403279;19;19911;-66
2022/11/15 04:25:48;;;;;;;25.25;11.80;;;8.60;99.90;;;;;;7406927;19;19941;-66
2022/11/15 04:28:18;;;;;;;21.38;11.15;;;8.60;99.90;;;;;;7402878;19;19921;-66
2022/11/15 04:30:47;;;;;;;23.40;10.98;;;8.60;99.90;;;;;;7405131;19;19918;-66
2022/11/15 04:33:16;;;;;;;25.95;11.02;;;8.60;99.90;;;;;;7403451;19;19925;-67
2022/11/15 04:37:11;;;;;;;23.90;10.57;;;8.60;99.90;;;;;;7404501;19;20357;-66
2022/11/15 04:38:37;;;;;;;26.13;11.32;;;8.60;99.90;;;;;;7396340;19;19918;-66
2022/11/15 04:41:06;;;;;;;22.77;11.05;;;8.70;99.90;;;;;;7405169;19;19931;-66
2022/11/15 04:43:35;;;;;;;28.25;12.95;;;8.70;99.90;;;;;;7401432;19;19915;-66
2022/11/15 04:46:04;;;;;;;24.60;11.43;;;8.70;99.90;;;;;;7406503;19;20479;-66
2022/11/15 04:48:32;;;;;;;28.20;11.40;;;8.70;99.90;;;;;;7405732;19;20359;-66
2022/11/15 04:51:04;;;;;;;28.13;12.70;;;8.70;99.90;;;;;;7403389;19;19922;-66
2022/11/15 04:53:33;;;;;;;20.02;10.75;;;8.70;99.90;;;;;;7397657;19;20340;-66
2022/11/15 04:56:02;;;;;;;29.58;13.02;;;8.70;99.90;;;;;;7402342;19;19922;-66
2022/11/15 04:58:30;;;;;;;29.48;12.63;;;8.70;99.90;;;;;;7402406;19;19921;-66
2022/11/15 05:00:59;;;;;;;32.45;12.20;;;8.70;99.90;;;;;;7404523;19;19937;-66
2022/11/15 05:06:12;;;;;;;26.83;12.20;;;8.80;99.90;;;;;;7404839;19;20260;-66
2022/11/15 05:08:41;;;;;;;28.27;11.95;;;8.80;99.90;;;;;;7402595;19;20635;-66
2022/11/15 05:11:10;;;;;;;24.42;11.93;;;8.80;99.90;;;;;;7401973;19;19921;-66
2022/11/15 05:13:39;;;;;;;28.98;11.52;;;8.80;99.90;;;;;;7399716;19;19941;-65
2022/11/15 05:16:08;;;;;;;30.90;12.55;;;8.80;99.90;;;;;;7400385;19;20350;-66
2022/11/15 05:18:40;;;;;;;27.60;11.77;;;8.80;99.90;;;;;;7396621;19;19946;-66
2022/11/15 05:21:13;;;;;;;28.15;13.18;;;8.80;99.90;;;;;;7409581;19;19931;-66
2022/11/15 05:23:42;;;;;;;26.83;12.02;;;8.90;99.90;;;;;;7411409;19;20307;-66
2022/11/15 05:26:12;;;;;;;26.23;12.60;;;8.90;99.90;;;;;;7409081;19;19926;-66
2022/11/15 05:28:41;;;;;;;31.30;13.10;;;8.90;99.90;;;;;;7411697;19;20348;-66
2022/11/15 05:31:12;;;;;;;34.33;13.98;;;8.90;99.90;;;;;;7410163;19;19919;-66
2022/11/15 05:33:42;;;;;;;31.83;12.85;;;9.00;99.90;;;;;;7406969;19;19937;-66
2022/11/15 05:36:18;;;;;;;30.70;13.23;;;9.00;99.90;;;;;;7401204;19;19925;-65
2022/11/15 05:38:48;;;;;;;33.88;13.77;;;9.00;99.90;;;;;;7408883;19;19945;-66
2022/11/15 05:41:18;;;;;;;31.05;14.07;;;9.00;99.90;;;;;;7409242;19;19923;-66
2022/11/15 05:43:47;;;;;;;32.28;14.00;;;9.00;99.90;;;;;;7406717;19;19925;-66
2022/11/15 05:46:17;;;;;;;31.50;14.38;;;9.00;99.90;;;;;;7407334;19;19918;-66
2022/11/15 05:48:50;;;;;;;30.15;13.77;;;9.10;99.90;;;;;;7408822;19;19937;-66
2022/11/15 05:51:25;;;;;;;29.88;14.02;;;9.20;99.90;;;;;;7407678;19;19922;-66
2022/11/15 05:53:55;;;;;;;30.27;12.75;;;9.10;99.90;;;;;;7411726;19;19918;-66
2022/11/15 05:56:24;;;;;;;34.75;13.68;;;9.10;99.90;;;;;;7407352;19;19915;-67
2022/11/15 05:58:55;;;;;;;31.73;13.65;;;9.10;99.90;;;;;;7407736;19;20312;-65
2022/11/15 06:01:24;;;;;;;35.80;14.63;;;9.20;99.90;;;;;;7400025;19;19919;-66
2022/11/15 06:03:53;;;;;;;39.97;13.85;;;9.20;99.90;;;;;;7411143;19;19932;-66
2022/11/15 06:06:24;;;;;;;36.33;15.18;;;9.20;99.90;;;;;;7407479;19;19931;-65
2022/11/15 06:08:53;;;;;;;32.60;14.80;;;9.30;99.90;;;;;;7411122;19;19958;-66
2022/11/15 06:11:22;;;;;;;37.15;15.50;;;9.30;99.90;;;;;;7406542;19;20333;-66
2022/11/15 06:13:51;;;;;;;38.25;15.30;;;9.30;99.90;;;;;;7408026;19;20252;-66
2022/11/15 06:16:20;;;;;;;42.28;17.35;;;9.40;99.90;;;;;;7405634;19;20128;-66
2022/11/15 06:18:49;;;;;;;39.42;15.60;;;9.40;99.90;;;;;;7401692;19;19997;-66
2022/11/15 06:21:18;;;;;;;41.83;14.38;;;9.50;99.90;;;;;;7407990;19;19922;-66
2022/11/15 06:23:50;;;;;;;37.35;16.00;;;9.50;99.90;;;;;;7406774;19;19922;-66
2022/11/15 06:26:19;;;;;;;38.45;14.63;;;9.60;99.90;;;;;;7406307;19;19954;-66
2022/11/15 06:28:48;;;;;;;37.17;15.50;;;9.60;99.90;;;;;;7406434;19;19974;-66
2022/11/15 06:31:17;;;;;;;37.50;14.73;;;9.60;99.90;;;;;;7406395;19;19930;-66
2022/11/15 06:33:46;;;;;;;38.70;14.23;;;9.60;99.90;;;;;;7406178;19;19911;-65
2022/11/15 06:36:16;;;;;;;34.67;14.32;;;9.70;99.90;;;;;;7394145;19;20383;-66
2022/11/15 06:38:46;;;;;;;31.15;13.70;;;9.70;99.90;;;;;;7408372;19;19922;-66
2022/11/15 06:41:17;;;;;;;36.70;14.95;;;9.70;99.90;;;;;;7405665;19;20351;-66
2022/11/15 06:43:46;;;;;;;32.90;14.63;;;9.70;99.90;;;;;;7410093;19;19998;-66
2022/11/15 06:46:15;;;;;;;33.17;14.10;;;9.70;99.90;;;;;;7405115;19;19926;-66
2022/11/15 06:48:44;;;;;;;29.98;14.20;;;9.80;99.90;;;;;;7407568;19;19919;-66
2022/11/15 06:51:13;;;;;;;31.75;13.02;;;9.80;99.90;;;;;;7405759;19;20365;-66
2022/11/15 06:53:41;;;;;;;35.65;14.27;;;9.80;99.90;;;;;;7405642;19;19926;-66
2022/11/15 06:56:10;;;;;;;34.42;14.27;;;9.90;99.90;;;;;;7404216;19;20002;-65
2022/11/15 06:58:42;;;;;;;31.95;13.82;;;9.90;99.90;;;;;;7396837;19;19923;-66
2022/11/15 07:01:13;;;;;;;34.42;14.00;;;9.90;99.90;;;;;;7396314;19;19935;-66
2022/11/15 07:03:45;;;;;;;28.08;13.05;;;9.90;99.90;;;;;;7408842;19;19918;-66
2022/11/15 07:06:14;;;;;;;28.67;13.27;;;9.90;99.90;;;;;;7406097;19;19919;-65
2022/11/15 07:08:44;;;;;;;30.55;13.60;;;9.90;99.90;;;;;;7408772;19;19918;-66
2022/11/15 07:11:13;;;;;;;28.80;13.13;;;10.00;99.90;;;;;;7398712;19;19922;-66
2022/11/15 07:13:44;;;;;;;28.67;12.82;;;10.00;99.90;;;;;;7403429;19;20354;-66
2022/11/15 07:16:13;;;;;;;27.15;12.48;;;10.00;99.90;;;;;;7406667;19;19930;-66
2022/11/15 07:18:43;;;;;;;31.23;12.90;;;10.00;99.90;;;;;;7405528;19;19918;-66
2022/11/15 07:21:15;;;;;;;28.48;12.88;;;10.10;99.90;;;;;;7405282;19;20276;-66
2022/11/15 07:23:44;;;;;;;24.40;12.25;;;10.10;99.90;;;;;;7404855;19;20258;-66
2022/11/15 07:26:13;;;;;;;22.98;11.48;;;10.10;99.90;;;;;;7405934;19;19926;-66
2022/11/15 07:28:44;;;;;;;23.35;11.52;;;10.20;99.90;;;;;;7404651;19;19918;-65
2022/11/15 07:31:14;;;;;;;23.33;12.20;;;10.20;99.90;;;;;;7397090;19;20304;-66
2022/11/15 07:33:43;;;;;;;30.33;12.85;;;10.20;99.90;;;;;;7408173;19;19922;-65
2022/11/15 07:36:12;;;;;;;25.45;11.48;;;10.30;99.90;;;;;;7404247;19;20019;-66
2022/11/15 07:38:42;;;;;;;26.02;13.20;;;10.30;99.90;;;;;;7407583;19;19926;-66
2022/11/15 07:41:10;;;;;;;24.75;12.10;;;10.30;99.90;;;;;;7406314;19;19915;-66
2022/11/15 07:43:39;;;;;;;24.27;11.30;;;10.40;99.90;;;;;;7404266;19;20348;-66
2022/11/15 07:46:11;;;;;;;23.60;11.88;;;10.40;99.90;;;;;;7397801;19;20606;-66
2022/11/15 07:48:41;;;;;;;23.63;12.90;;;10.40;99.90;;;;;;7405463;19;19927;-66
2022/11/15 07:51:12;;;;;;;23.20;11.43;;;10.40;99.90;;;;;;7408521;19;19926;-66
2022/11/15 07:53:42;;;;;;;23.83;11.07;;;10.40;99.90;;;;;;7406523;19;19914;-66
2022/11/15 07:56:12;;;;;;;24.83;11.95;;;10.50;99.90;;;;;;7406110;19;19921;-66
2022/11/15 07:58:44;;;;;;;27.95;11.38;;;10.50;99.90;;;;;;7404798;19;19911;-66
2022/11/15 08:01:15;;;;;;;21.95;11.95;;;10.50;99.90;;;;;;7402759;19;19982;-66
2022/11/15 08:03:44;;;;;;;22.60;11.40;;;10.60;99.90;;;;;;7395721;19;19924;-66
2022/11/15 08:06:13;;;;;;;24.30;11.45;;;10.60;99.90;;;;;;7405834;19;19922;-66
2022/11/15 08:08:42;;;;;;;23.17;11.50;;;10.60;99.90;;;;;;7403706;19;19919;-66
2022/11/15 08:11:10;;;;;;;23.20;11.18;;;10.60;99.90;;;;;;7403130;19;19922;-66
2022/11/15 08:13:40;;;;;;;23.67;12.35;;;10.70;99.90;;;;;;7406658;19;19921;-66
2022/11/15 08:16:09;;;;;;;21.13;10.95;;;10.70;99.90;;;;;;7404620;19;19919;-66
2022/11/15 08:18:40;;;;;;;25.02;11.63;;;10.70;99.90;;;;;;7404088;19;19941;-66
2022/11/15 08:21:12;;;;;;;25.15;11.68;;;10.80;99.90;;;;;;7398963;19;19978;-66
2022/11/15 08:23:41;;;;;;;22.02;11.93;;;10.80;99.90;;;;;;7405047;19;19923;-68
2022/11/15 08:26:11;;;;;;;24.73;11.52;;;10.90;99.90;;;;;;7404566;19;19952;-66
2022/11/15 08:28:40;;;;;;;27.02;12.45;;;10.90;99.90;;;;;;7405356;19;20385;-66
2022/11/15 08:31:09;;;;;;;21.05;10.82;;;11.00;99.90;;;;;;7401870;19;19926;-66
2022/11/15 08:33:42;;;;;;;21.80;11.13;;;11.00;99.90;;;;;;7404483;19;19918;-66
2022/11/15 08:36:15;;;;;;;24.80;11.32;;;11.10;99.90;;;;;;7404184;19;19921;-65
2022/11/15 08:38:44;;;;;;;22.25;12.60;;;11.20;99.90;;;;;;7397716;19;19918;-66
2022/11/15 08:41:17;;;;;;;23.98;12.00;;;11.20;99.90;;;;;;7401631;19;19918;-66
2022/11/15 08:43:46;;;;;;;23.90;12.73;;;11.30;99.90;;;;;;7404966;19;19995;-66
2022/11/15 08:46:16;;;;;;;22.55;11.05;;;11.40;99.90;;;;;;7402684;19;19919;-66
2022/11/15 08:48:47;;;;;;;22.90;12.25;;;11.50;99.90;;;;;;7402376;19;19927;-66
2022/11/15 08:51:17;;;;;;;28.55;13.38;;;11.50;99.90;;;;;;7404348;19;19922;-66
2022/11/15 08:53:46;;;;;;;24.98;12.57;;;11.60;99.90;;;;;;7403464;19;19926;-66
2022/11/15 08:56:17;;;;;;;20.67;12.43;;;11.60;99.90;;;;;;7406541;19;19927;-66
2022/11/15 08:58:46;;;;;;;23.08;11.73;;;11.70;99.90;;;;;;7407799;19;19930;-66
2022/11/15 09:01:20;;;;;;;23.05;10.98;;;11.70;99.90;;;;;;7409000;19;19915;-66
2022/11/15 09:03:51;;;;;;;24.77;13.18;;;11.70;99.90;;;;;;7409175;19;19910;-66
2022/11/15 09:06:20;;;;;;;23.80;12.25;;;11.80;99.90;;;;;;7410432;19;19923;-66
2022/11/15 09:08:49;;;;;;;22.73;11.27;;;11.90;99.90;;;;;;7408488;19;19943;-74
2022/11/15 09:11:20;;;;;;;23.48;11.80;;;11.90;99.90;;;;;;7411453;19;19922;-66
2022/11/15 09:13:49;;;;;;;23.95;11.80;;;12.00;99.90;;;;;;7405721;19;20351;-73
2022/11/15 09:16:18;;;;;;;24.52;12.85;;;12.00;99.90;;;;;;7397548;19;19918;-66
2022/11/15 09:18:46;;;;;;;24.65;12.70;;;12.00;99.90;;;;;;7411161;19;20594;-66
2022/11/15 09:21:18;;;;;;;26.20;12.73;;;12.00;99.90;;;;;;7408303;19;19923;-78
2022/11/15 09:23:47;;;;;;;24.70;12.30;;;12.00;99.90;;;;;;7382626;19;19926;-79
2022/11/15 09:26:16;;;;;;;24.73;11.52;;;12.00;99.90;;;;;;7396720;19;19919;-90
2022/11/15 09:28:45;;;;;;;;;;;12.00;99.90;;;;;;7416266;19;19927;-87
2022/11/15 09:31:14;;;;;;;23.25;13.32;;;12.00;99.90;;;;;;7394343;19;19947;-83
2022/11/15 09:33:46;;;;;;;26.20;12.20;;;12.00;99.90;;;;;;7407411;19;19925;-82
2022/11/15 09:36:18;;;;;;;23.02;12.30;;;12.00;99.90;;;;;;7410023;19;19929;-82
2022/11/15 09:38:47;;;;;;;25.27;11.77;;;12.10;99.90;;;;;;7408293;19;19946;-77
2022/11/15 09:41:36;;;;;;;27.48;11.88;;;12.00;99.90;;;;;;7404937;19;20385;-76
2022/11/15 09:44:18;;;;;;;22.70;10.85;;;12.10;99.90;;;;;;7407664;19;19933;-78
2022/11/15 09:46:57;;;;;;;20.00;10.73;;;12.10;99.90;;;;;;7407818;19;19923;-80
2022/11/15 09:49:26;;;;;;;21.27;10.93;;;12.10;99.90;;;;;;7398260;19;20553;-66
2022/11/15 09:51:58;;;;;;;18.95;10.55;;;12.10;99.90;;;;;;7405559;19;20009;-84
2022/11/15 09:54:33;;;;;;;23.02;10.98;;;12.10;99.90;;;;;;7408671;19;19918;-78
2022/11/15 09:57:08;;;;;;;20.80;10.80;;;12.10;99.90;;;;;;7368097;19;19922;-78
2022/11/15 10:00:01;;;;;;;21.52;10.73;;;12.10;99.90;;;;;;7407017;19;19914;-80
2022/11/15 10:02:45;;;;;;;20.45;11.02;;;12.10;99.90;;;;;;7408997;19;19922;-86
2022/11/15 10:05:18;;;;;;;20.77;9.70;;;12.10;99.90;;;;;;7406655;19;19950;-82
2022/11/15 10:07:58;;;;;;;22.58;10.55;;;12.20;99.90;;;;;;7408623;19;19994;-81
2022/11/15 10:10:32;;;;;;;23.00;10.88;;;12.10;99.90;;;;;;7406204;19;19943;-77
2022/11/15 10:13:01;;;;;;;18.58;10.90;;;12.20;99.90;;;;;;7410467;19;20368;-81
2022/11/15 10:15:31;;;;;;;22.67;10.15;;;12.20;99.90;;;;;;7424876;19;19958;-78
2022/11/15 10:18:11;;;;;;;19.73;10.63;;;12.20;99.90;;;;;;7412474;19;19922;-74
2022/11/15 10:20:50;;;;;;;22.38;10.13;;;12.20;99.90;;;;;;7420337;19;20361;-77
2022/11/15 10:23:24;;;;;;;17.48;10.25;;;12.20;99.90;;;;;;7422392;19;19935;-78
2022/11/15 10:25:55;;;;;;;17.63;9.23;;;12.20;99.90;;;;;;7423823;19;19918;-79
2022/11/15 10:28:29;;;;;;;19.35;10.82;;;12.30;99.90;;;;;;7408828;19;19942;-80
2022/11/15 10:31:00;;;;;;;19.20;10.57;;;12.20;99.90;;;;;;7403106;19;19946;-81
2022/11/15 10:33:33;;;;;;;19.20;10.52;;;12.20;99.90;;;;;;7406325;19;19937;-76
2022/11/15 10:36:24;;;;;;;20.23;10.35;;;12.20;99.90;;;;;;7391490;19;20009;-67
2022/11/15 10:38:59;;;;;;;18.95;9.07;;;12.20;99.90;;;;;;7405239;19;20524;-80
2022/11/15 10:41:42;;;;;;;16.92;9.88;;;12.10;99.90;;;;;;7406263;19;19925;-80
2022/11/15 10:44:28;;;;;;;19.08;10.02;;;12.10;99.90;;;;;;7407206;19;19922;-81
2022/11/15 10:47:24;;;;;;;17.92;9.93;;;12.10;99.90;;;;;;7406694;19;19911;-82
2022/11/15 10:49:58;;;;;;;17.73;9.50;;;12.10;99.90;;;;;;7407858;19;19911;-88
2022/11/15 10:52:27;;;;;;;17.23;9.30;;;12.20;99.90;;;;;;7400247;19;19918;-68
2022/11/15 10:55:03;;;;;;;17.00;10.02;;;12.20;99.90;;;;;;7399620;19;19924;-67
2022/11/15 10:57:34;;;;;;;;;;;12.30;99.90;;;;;;7403486;19;19941;-68
2022/11/15 11:00:06;;;;;;;16.13;9.10;;;12.40;99.90;;;;;;7403811;19;19958;-68
2022/11/15 11:02:37;;;;;;;14.60;9.18;;;12.40;99.90;;;;;;7405832;19;19925;-68
2022/11/15 11:05:09;;;;;;;16.70;9.60;;;12.40;99.90;;;;;;7405528;19;20357;-68
2022/11/15 11:07:40;;;;;;;18.70;10.40;;;12.40;99.90;;;;;;7398667;19;19919;-68
2022/11/15 11:10:21;;;;;;;16.25;9.77;;;12.40;99.90;;;;;;7404575;19;19918;-68
2022/11/15 11:12:50;;;;;;;16.40;9.77;;;12.40;99.90;;;;;;7404809;19;19918;-68
2022/11/15 11:15:20;;;;;;;15.45;9.45;;;12.50;99.90;;;;;;7406056;19;19922;-68
2022/11/15 11:18:04;;;;;;;17.42;10.15;;;12.50;99.90;;;;;;7403639;19;19923;-68
2022/11/15 11:20:37;;;;;;;17.13;10.20;;;12.50;99.90;;;;;;7406970;19;19927;-68
2022/11/15 11:23:26;;;;;;;15.30;8.82;;;12.50;99.90;;;;;;7405110;19;19926;-68
2022/11/15 11:26:10;;;;;;;16.45;9.45;;;12.50;99.90;;;;;;7406124;19;19918;-68
2022/11/15 11:28:45;;;;;;;14.75;9.50;;;12.60;99.90;;;;;;7402890;19;19919;-68
2022/11/15 11:31:29;;;;;;;14.90;8.90;;;12.70;99.90;;;;;;7407439;19;19914;-68
2022/11/15 11:34:07;;;;;;;16.55;8.98;;;12.70;99.90;;;;;;7407464;19;20336;-68
2022/11/15 11:36:44;;;;;;;16.02;8.93;;;12.70;99.90;;;;;;7404946;19;19927;-68
2022/11/15 11:39:27;;;;;;;14.73;8.90;;;12.80;99.90;;;;;;7403413;19;20337;-68
2022/11/15 11:42:07;;;;;;;17.63;9.00;;;12.90;99.90;;;;;;7406404;19;19911;-68
2022/11/15 11:44:54;;;;;;;14.23;8.13;;;12.90;99.90;;;;;;7402166;19;19914;-68
2022/11/15 11:47:26;;;;;;;14.02;8.23;;;12.90;99.90;;;;;;7409329;19;19918;-68
2022/11/15 11:49:58;;;;;;;15.70;9.15;;;13.00;99.90;;;;;;7410582;19;19925;-68
2022/11/15 11:52:32;;;;;;;13.90;8.98;;;13.10;99.90;;;;;;7405838;19;20336;-68
2022/11/15 11:55:16;;;;;;;14.90;9.32;;;13.20;99.90;;;;;;7400754;19;19923;-67
2022/11/15 11:57:53;;;;;;;13.45;7.53;;;13.20;99.90;;;;;;7396273;19;19918;-81
2022/11/15 12:00:25;;;;;;;14.75;7.75;;;13.30;99.90;;;;;;7398009;19;19914;-79
2022/11/15 12:03:07;;;;;;;12.32;7.90;;;13.40;99.90;;;;;;7402091;19;20253;-80
2022/11/15 12:05:40;;;;;;;12.65;8.20;;;13.40;99.90;;;;;;7404411;19;20261;-81
2022/11/15 12:08:26;;;;;;;9.82;7.32;;;13.50;99.90;;;;;;7404008;19;19919;-78
2022/11/15 12:11:02;;;;;;;11.20;7.32;;;13.60;99.90;;;;;;7404920;19;19996;-80
2022/11/15 12:13:36;;;;;;;11.95;7.63;;;13.70;99.90;;;;;;7400346;19;20272;-67
2022/11/15 12:16:11;;;;;;;10.90;6.53;;;13.80;99.90;;;;;;7403724;19;19915;-67
2022/11/15 12:18:41;;;;;;;7.40;4.88;;;13.80;99.90;;;;;;7403112;19;20304;-67
2022/11/15 12:21:24;;;;;;;8.57;5.35;;;13.80;99.90;;;;;;7404789;19;19919;-68
2022/11/15 12:23:57;;;;;;;16.10;4.03;;;13.70;99.90;;;;;;7402639;19;19925;-67
2022/11/15 12:26:32;;;;;;;7.97;3.15;;;13.60;99.90;;;;;;7404415;19;19942;-67
2022/11/15 12:29:08;;;;;;;6.47;3.15;;;13.60;99.90;;;;;;7408264;19;19929;-67
2022/11/15 12:31:41;;;;;;;8.18;3.58;;;13.50;99.90;;;;;;7412191;19;19918;-67
2022/11/15 12:34:32;;;;;;;5.35;2.80;;;13.40;99.90;;;;;;7408159;19;19926;-68
2022/11/15 12:37:02;;;;;;;5.35;2.47;;;13.30;99.90;;;;;;7411216;19;19925;-67
2022/11/15 12:40:07;;;;;;;7.38;2.90;;;13.40;99.90;;;;;;7399228;19;19934;-67
2022/11/15 12:42:43;;;;;;;5.63;2.70;;;13.40;99.90;;;;;;7410444;19;19924;-67
2022/11/15 12:45:32;;;;;;;4.70;2.67;;;13.40;99.90;;;;;;7410320;19;19927;-67
2022/11/15 12:48:40;;;;;;;6.90;3.30;;;13.40;99.90;;;;;;7409865;19;20261;-67
2022/11/15 12:51:09;;;;;;;6.97;3.17;;;13.50;99.90;;;;;;7409999;19;19986;-67
2022/11/15 12:53:38;;;;;;;5.50;2.95;;;13.60;99.90;;;;;;7410664;19;19931;-67
2022/11/15 12:56:27;;;;;;;5.78;2.40;;;13.70;99.90;;;;;;7403334;19;19926;-68
2022/11/15 12:58:59;;;;;;;6.75;2.70;;;13.80;99.90;;;;;;7406006;19;20276;-67
2022/11/15 13:01:58;;;;;;;5.50;2.65;;;13.80;99.90;;;;;;7410879;19;19926;-67
2022/11/15 13:04:34;;;;;;;5.45;2.40;;;13.80;99.90;;;;;;7410435;19;19922;-77
2022/11/15 13:07:07;;;;;;;3.97;1.65;;;13.80;99.90;;;;;;7416679;19;19914;-79
2022/11/15 13:09:55;;;;;;;3.35;1.60;;;13.90;99.90;;;;;;7412511;19;20320;-79
2022/11/15 13:12:53;;;;;;;5.65;2.55;;;13.80;99.90;;;;;;7411198;19;19925;-68
2022/11/15 13:15:39;;;;;;;5.03;2.03;;;13.70;99.90;;;;;;7405310;19;20324;-82